createdAt,value
2023-04-04T00:03:05.696Z,1.50
2023-04-04T00:06:28.055Z,1.00
2023-04-04T00:09:52.899Z,1.30
2023-04-04T00:13:37.508Z,1.50
2023-04-04T00:17:15.208Z,1.50
2023-04-04T00:20:40.130Z,0.90
2023-04-04T00:24:04.884Z,1.60
2023-04-04T00:27:28.170Z,1.30
2023-04-04T00:30:51.043Z,1.60
2023-04-04T00:34:20.139Z,1.40
2023-04-04T00:37:46.396Z,1.30
2023-04-04T00:41:11.532Z,2.30
2023-04-04T00:44:56.178Z,1.60
2023-04-04T00:48:23.366Z,1.10
2023-04-04T00:51:45.050Z,1.00
2023-04-04T00:55:18.430Z,1.00
2023-04-04T00:59:27.753Z,1.30
2023-04-04T01:03:00.734Z,1.20
2023-04-04T01:07:00.933Z,1.40
2023-04-04T01:10:43.178Z,1.20
2023-04-04T01:14:05.623Z,1.30
2023-04-04T01:21:27.575Z,1.20
2023-04-04T01:25:03.125Z,1.00
2023-04-04T01:28:33.607Z,1.20
2023-04-04T01:32:31.143Z,1.30
2023-04-04T01:36:29.508Z,1.30
2023-04-04T01:43:59.071Z,1.00
2023-04-04T01:47:24.363Z,1.50
2023-04-04T01:50:55.285Z,1.40
2023-04-04T01:54:38.030Z,1.20
2023-04-04T01:58:05.074Z,1.30
2023-04-04T02:01:26.936Z,1.10
2023-04-04T02:04:53.932Z,1.30
2023-04-04T02:08:24.887Z,2.10
2023-04-04T02:16:12.734Z,1.20
2023-04-04T02:23:06.470Z,1.10
2023-04-04T02:26:28.243Z,1.10
2023-04-04T02:30:01.000Z,1.70
2023-04-04T02:33:37.352Z,1.20
2023-04-04T02:37:06.829Z,0.90
2023-04-04T02:40:32.810Z,1.20
2023-04-04T02:44:19.099Z,1.10
2023-04-04T02:47:51.928Z,1.40
2023-04-04T02:51:21.772Z,1.00
2023-04-04T02:54:48.686Z,1.20
2023-04-04T02:58:33.246Z,1.20
2023-04-04T03:01:59.325Z,0.90
2023-04-04T03:05:36.606Z,1.20
2023-04-04T03:09:00.488Z,1.10
2023-04-04T03:12:32.337Z,1.30
2023-04-04T03:16:18.309Z,1.40
2023-04-04T03:19:52.329Z,1.10
2023-04-04T03:23:14.187Z,1.40
2023-04-04T03:26:52.231Z,1.20
2023-04-04T03:34:10.939Z,1.90
2023-04-04T03:37:38.278Z,1.40
2023-04-04T03:41:16.212Z,1.30
2023-04-04T03:44:50.217Z,1.90
2023-04-04T03:48:50.603Z,1.20
2023-04-04T03:52:12.358Z,1.00
2023-04-04T03:55:47.972Z,1.60
2023-04-04T03:59:15.125Z,1.40
2023-04-04T04:02:41.744Z,1.00
2023-04-04T04:06:26.609Z,1.60
2023-04-04T04:10:00.572Z,1.00
2023-04-04T04:13:29.670Z,1.00
2023-04-04T04:17:02.484Z,1.10
2023-04-04T04:20:25.416Z,1.00
2023-04-04T04:23:52.416Z,0.90
2023-04-04T04:27:24.238Z,1.10
2023-04-04T04:30:50.580Z,1.30
2023-04-04T04:34:28.435Z,1.20
2023-04-04T04:37:55.227Z,1.40
2023-04-04T04:41:23.435Z,1.20
2023-04-04T04:45:03.349Z,1.10
2023-04-04T04:48:28.040Z,1.30
2023-04-04T04:51:54.160Z,1.20
2023-04-04T04:55:18.279Z,1.10
2023-04-04T04:58:45.605Z,1.00
2023-04-04T05:02:14.980Z,1.00
2023-04-04T05:05:45.016Z,1.30
2023-04-04T05:09:20.657Z,1.70
2023-04-04T05:12:46.738Z,1.60
2023-04-04T05:16:13.220Z,1.20
2023-04-04T05:19:37.288Z,1.10
2023-04-04T05:23:02.008Z,1.30
2023-04-04T05:26:29.721Z,1.40
2023-04-04T05:30:04.779Z,1.30
2023-04-04T05:33:46.863Z,1.30
2023-04-04T05:37:27.112Z,1.80
2023-04-04T05:40:56.357Z,0.90
2023-04-04T05:44:21.508Z,1.20
2023-04-04T05:47:44.008Z,1.60
2023-04-04T05:51:06.499Z,1.40
2023-04-04T05:54:34.673Z,1.30
2023-04-04T05:58:02.997Z,1.60
2023-04-04T06:01:36.880Z,1.00
2023-04-04T06:05:08.928Z,1.00
2023-04-04T06:08:40.155Z,1.10
2023-04-04T06:12:12.186Z,1.40
2023-04-04T06:15:34.401Z,1.60
2023-04-04T06:18:59.343Z,1.40
2023-04-04T06:22:25.198Z,1.20
2023-04-04T06:25:53.537Z,1.30
2023-04-04T06:29:15.833Z,1.30
2023-04-04T06:32:45.492Z,1.30
2023-04-04T06:36:13.904Z,1.20
2023-04-04T06:39:35.985Z,1.50
2023-04-04T06:43:05.180Z,2.80
2023-04-04T06:46:33.516Z,1.20
2023-04-04T06:49:55.248Z,1.50
2023-04-04T06:53:21.296Z,1.80
2023-04-04T06:56:43.392Z,1.70
2023-04-04T07:00:07.939Z,2.10
2023-04-04T07:03:37.559Z,2.10
2023-04-04T07:07:00.945Z,1.90
2023-04-04T07:10:31.848Z,1.50
2023-04-04T07:13:53.514Z,2.00
2023-04-04T07:17:25.606Z,1.40
2023-04-04T07:20:49.879Z,1.70
2023-04-04T07:24:11.577Z,1.60
2023-04-04T07:27:33.171Z,2.00
2023-04-04T07:30:54.761Z,1.90
2023-04-04T07:34:23.900Z,1.70
2023-04-04T07:38:01.572Z,2.20
2023-04-04T07:41:32.456Z,1.90
2023-04-04T07:45:23.575Z,1.40
2023-04-04T07:52:52.463Z,2.00
2023-04-04T07:56:14.082Z,1.80
2023-04-04T07:59:43.285Z,1.70
2023-04-04T08:03:13.965Z,1.40
2023-04-04T08:06:46.681Z,1.70
2023-04-04T08:10:17.936Z,1.40
2023-04-04T08:13:40.546Z,1.40
2023-04-04T08:17:04.895Z,1.50
2023-04-04T08:20:28.505Z,1.70
2023-04-04T08:23:50.091Z,1.80
2023-04-04T08:27:23.976Z,1.80
2023-04-04T08:30:45.675Z,1.80
2023-04-04T08:34:11.248Z,1.40
2023-04-04T08:37:34.030Z,1.40
2023-04-04T08:40:57.237Z,1.60
2023-04-04T08:44:24.964Z,1.80
2023-04-04T08:48:04.701Z,1.70
2023-04-04T08:51:38.027Z,1.60
2023-04-04T08:55:04.023Z,1.40
2023-04-04T08:58:31.868Z,1.20
2023-04-04T09:02:20.282Z,2.20
2023-04-04T09:05:44.738Z,1.40
2023-04-04T09:09:12.973Z,1.60
2023-04-04T09:12:43.232Z,1.20
2023-04-04T09:16:05.156Z,1.50
2023-04-04T09:19:30.992Z,1.30
2023-04-04T09:22:52.715Z,1.70
2023-04-04T09:26:17.320Z,1.10
2023-04-04T09:29:39.978Z,1.10
2023-04-04T09:33:04.534Z,1.40
2023-04-04T09:36:42.243Z,1.50
2023-04-04T09:40:04.772Z,1.10
2023-04-04T09:43:29.447Z,1.20
2023-04-04T09:47:03.146Z,1.40
2023-04-04T09:50:30.425Z,1.00
2023-04-04T09:54:02.608Z,1.00
2023-04-04T09:57:36.428Z,1.10
2023-04-04T10:01:07.788Z,0.90
2023-04-04T10:04:33.030Z,1.20
2023-04-04T10:07:56.819Z,1.30
2023-04-04T10:11:44.415Z,0.70
2023-04-04T10:15:09.828Z,1.10
2023-04-04T10:18:39.479Z,0.90
2023-04-04T10:22:02.589Z,0.70
2023-04-04T10:25:25.202Z,0.90
2023-04-04T10:28:47.690Z,0.90
2023-04-04T10:32:10.802Z,0.80
2023-04-04T10:35:37.247Z,0.80
2023-04-04T10:39:13.106Z,0.70
2023-04-04T10:42:44.195Z,0.80
2023-04-04T10:46:21.042Z,1.00
2023-04-04T10:49:45.294Z,0.70
2023-04-04T10:53:07.677Z,0.90
2023-04-04T10:56:29.895Z,1.00
2023-04-04T11:00:24.643Z,0.70
2023-04-04T11:04:23.009Z,1.00
2023-04-04T11:08:00.689Z,0.60
2023-04-04T11:11:37.951Z,0.90
2023-04-04T11:15:10.716Z,0.90
2023-04-04T11:18:37.121Z,0.90
2023-04-04T11:21:59.140Z,2.40
2023-04-04T11:25:32.355Z,0.70
2023-04-04T11:29:21.439Z,0.70
2023-04-04T11:32:59.929Z,0.80
2023-04-04T11:36:48.669Z,0.60
2023-04-04T11:40:21.091Z,0.70
2023-04-04T11:43:49.148Z,0.70
2023-04-04T11:47:24.281Z,0.70
2023-04-04T11:50:50.405Z,0.80
2023-04-04T11:54:17.828Z,0.60
2023-04-04T11:57:49.387Z,0.80
2023-04-04T12:01:11.538Z,0.80
2023-04-04T12:04:37.177Z,0.60
2023-04-04T12:08:02.149Z,0.90
2023-04-04T12:11:30.856Z,0.60
2023-04-04T12:14:58.082Z,0.80
2023-04-04T12:18:34.616Z,0.70
2023-04-04T12:21:58.306Z,0.90
2023-04-04T12:25:22.525Z,0.90
2023-04-04T12:28:45.631Z,0.60
2023-04-04T12:32:09.955Z,0.70
2023-04-04T12:35:32.292Z,0.90
2023-04-04T12:43:03.677Z,0.80
2023-04-04T12:46:41.753Z,1.30
2023-04-04T12:50:09.414Z,1.20
2023-04-04T12:53:35.260Z,0.90
2023-04-04T12:57:01.529Z,0.50
2023-04-04T13:00:25.056Z,0.90
2023-04-04T13:03:47.454Z,0.70
2023-04-04T13:07:23.851Z,0.40
2023-04-04T13:11:09.863Z,0.90
2023-04-04T13:15:13.733Z,0.60
2023-04-04T13:18:45.860Z,0.60
2023-04-04T13:22:13.993Z,0.90
2023-04-04T13:25:39.698Z,0.80
2023-04-04T13:29:01.778Z,1.10
2023-04-04T13:32:25.727Z,1.30
2023-04-04T13:35:51.421Z,0.90
2023-04-04T13:39:13.100Z,0.80
2023-04-04T13:42:35.465Z,1.80
2023-04-04T13:45:57.362Z,0.60
2023-04-04T13:49:22.269Z,0.80
2023-04-04T13:52:44.059Z,0.80
2023-04-04T13:59:31.681Z,1.00
2023-04-04T14:02:55.846Z,0.90
2023-04-04T14:06:25.905Z,1.00
2023-04-04T14:09:48.289Z,0.90
2023-04-04T14:13:19.944Z,0.90
2023-04-04T14:16:41.868Z,0.70
2023-04-04T14:20:04.345Z,1.60
2023-04-04T14:23:27.551Z,0.90
2023-04-04T14:26:49.143Z,0.90
2023-04-04T14:30:11.750Z,0.70
2023-04-04T14:33:33.538Z,0.70
2023-04-04T14:36:55.114Z,0.50
2023-04-04T14:40:28.317Z,0.70
2023-04-04T14:43:55.273Z,1.30
2023-04-04T14:47:27.076Z,0.60
2023-04-04T14:50:48.740Z,1.20
2023-04-04T14:54:10.768Z,1.30
2023-04-04T14:57:39.269Z,1.00
2023-04-04T15:01:05.984Z,0.70
2023-04-04T15:04:27.909Z,0.70
2023-04-04T15:07:49.916Z,0.90
2023-04-04T15:11:13.366Z,0.90
2023-04-04T15:14:35.002Z,1.00
2023-04-04T15:18:00.995Z,0.70
2023-04-04T15:21:28.413Z,0.80
2023-04-04T15:24:50.290Z,0.90
2023-04-04T15:28:14.928Z,0.80
2023-04-04T15:31:36.585Z,0.90
2023-04-04T15:34:58.651Z,1.00
2023-04-04T15:38:22.213Z,0.80
2023-04-04T15:41:44.782Z,1.00
2023-04-04T15:45:08.253Z,0.80
2023-04-04T15:48:29.989Z,1.20
2023-04-04T15:51:55.274Z,1.50
2023-04-04T15:55:21.942Z,1.20
2023-04-04T15:58:43.894Z,1.00
2023-04-04T16:02:07.177Z,1.10
2023-04-04T16:05:37.307Z,1.50
2023-04-04T16:09:02.178Z,0.90
2023-04-04T16:12:23.783Z,1.10
2023-04-04T16:15:47.071Z,1.50
2023-04-04T16:29:05.993Z,1.10
2023-04-04T16:37:01.415Z,0.90
2023-04-04T16:45:11.062Z,1.10
2023-04-04T16:49:01.813Z,1.10
2023-04-04T16:56:09.097Z,2.30
2023-04-04T16:59:30.805Z,2.00
2023-04-04T17:02:53.452Z,1.80
2023-04-04T17:06:20.289Z,2.30
2023-04-04T17:13:14.207Z,2.30
2023-04-04T17:16:37.194Z,2.00
2023-04-04T17:20:01.553Z,1.90
2023-04-04T17:23:23.246Z,2.10
2023-04-04T17:26:48.078Z,1.60
2023-04-04T17:30:15.797Z,2.10
2023-04-04T17:33:49.266Z,2.00
2023-04-04T17:37:11.639Z,2.00
2023-04-04T17:40:37.561Z,1.90
2023-04-04T17:43:59.192Z,1.90
2023-04-04T17:47:24.238Z,2.10
2023-04-04T17:50:50.590Z,1.70
2023-04-04T17:54:19.051Z,1.60
2023-04-04T17:57:45.268Z,1.90
2023-04-04T18:01:13.532Z,1.60
2023-04-04T18:04:41.103Z,1.40
2023-04-04T18:08:34.388Z,1.60
2023-04-04T18:12:03.551Z,1.40
2023-04-04T18:15:26.314Z,1.40
2023-04-04T18:18:50.986Z,1.90
2023-04-04T18:22:16.119Z,1.60
2023-04-04T18:25:40.241Z,1.70
2023-04-04T18:29:07.381Z,2.10
2023-04-04T18:32:35.341Z,2.00
2023-04-04T18:36:04.070Z,2.10
2023-04-04T18:39:26.255Z,2.10
2023-04-04T18:42:51.779Z,2.20
2023-04-04T18:46:19.003Z,1.60
2023-04-04T18:49:42.623Z,1.90
2023-04-04T18:53:11.452Z,2.10
2023-04-04T18:56:33.129Z,1.80
2023-04-04T19:00:00.119Z,1.50
2023-04-04T19:03:25.320Z,2.80
2023-04-04T19:06:58.428Z,2.20
2023-04-04T19:10:20.162Z,1.80
2023-04-04T19:13:42.294Z,2.30
2023-04-04T19:17:03.962Z,1.70
2023-04-04T19:20:29.116Z,1.70
2023-04-04T19:23:53.173Z,1.80
2023-04-04T19:27:29.222Z,1.70
2023-04-04T19:30:59.930Z,2.30
2023-04-04T19:34:22.132Z,1.60
2023-04-04T19:37:46.442Z,1.90
2023-04-04T19:41:18.110Z,2.10
2023-04-04T19:44:42.787Z,1.80
2023-04-04T19:48:13.209Z,1.50
2023-04-04T19:51:41.942Z,1.90
2023-04-04T19:55:13.000Z,1.90
2023-04-04T19:58:35.617Z,1.30
2023-04-04T20:02:07.070Z,1.40
2023-04-04T20:05:33.813Z,1.30
2023-04-04T20:09:07.951Z,1.20
2023-04-04T20:12:33.724Z,1.60
2023-04-04T20:15:59.838Z,1.20
2023-04-04T20:19:28.374Z,1.50
2023-04-04T20:22:52.952Z,1.60
2023-04-04T20:26:40.739Z,1.60
2023-04-04T20:30:08.024Z,1.60
2023-04-04T20:33:34.003Z,2.00
2023-04-04T20:37:08.290Z,1.50
2023-04-04T20:40:45.524Z,1.60
2023-04-04T20:44:24.621Z,1.60
2023-04-04T20:47:51.550Z,1.50
2023-04-04T20:51:35.180Z,1.60
2023-04-04T20:55:04.325Z,1.80
2023-04-04T20:58:32.709Z,1.50
2023-04-04T21:02:12.405Z,1.60
2023-04-04T21:05:36.675Z,1.60
2023-04-04T21:09:17.171Z,2.00
2023-04-04T21:12:50.303Z,1.80
2023-04-04T21:16:13.464Z,1.80
2023-04-04T21:23:57.679Z,1.70
2023-04-04T21:27:38.057Z,1.90
2023-04-04T21:31:22.753Z,2.00
2023-04-04T21:35:00.610Z,2.70
2023-04-04T21:38:50.860Z,1.90
2023-04-04T21:42:27.712Z,2.00
2023-04-04T21:45:51.915Z,2.20
2023-04-04T21:49:18.862Z,2.20
2023-04-04T21:52:52.500Z,2.60
2023-04-04T21:56:19.158Z,2.30
2023-04-04T21:59:47.883Z,2.40
2023-04-04T22:03:14.948Z,2.50
2023-04-04T22:10:38.451Z,2.60
2023-04-04T22:14:14.922Z,2.40
2023-04-04T22:17:40.862Z,2.10
2023-04-04T22:21:07.802Z,2.40
2023-04-04T22:24:41.730Z,2.60
2023-04-04T22:28:13.005Z,2.50
2023-04-04T22:35:42.584Z,2.70
2023-04-04T22:39:09.867Z,2.80
2023-04-04T22:42:48.068Z,2.20
2023-04-04T22:46:09.918Z,2.60
2023-04-04T22:49:41.664Z,3.70
2023-04-04T22:53:15.787Z,2.60
2023-04-04T22:56:44.305Z,3.60
2023-04-04T23:00:19.761Z,3.50
2023-04-04T23:03:45.184Z,3.60
2023-04-04T23:07:07.207Z,3.40
2023-04-04T23:10:30.850Z,3.40
2023-04-04T23:13:54.101Z,3.00
2023-04-04T23:17:18.293Z,3.50
2023-04-04T23:20:55.365Z,3.90
2023-04-04T23:24:39.130Z,4.20
2023-04-04T23:28:05.786Z,4.60
2023-04-04T23:31:32.477Z,4.30
2023-04-04T23:34:54.428Z,4.00
2023-04-04T23:38:18.376Z,5.10
2023-04-04T23:41:43.232Z,3.90
2023-04-04T23:45:08.242Z,3.90
2023-04-04T23:48:35.497Z,4.70
2023-04-04T23:52:03.335Z,4.80
2023-04-04T23:55:28.260Z,4.90
2023-04-04T23:59:02.497Z,4.50
